createdAt,value
2022-08-25T00:01:31.331Z,13.10
2022-08-25T00:04:00.682Z,13.00
2022-08-25T00:06:30.433Z,13.00
2022-08-25T00:08:59.889Z,13.00
2022-08-25T00:11:30.153Z,13.00
2022-08-25T00:14:01.133Z,12.90
2022-08-25T00:16:31.492Z,12.90
2022-08-25T00:19:03.497Z,12.90
2022-08-25T00:21:31.954Z,12.90
2022-08-25T00:23:59.854Z,12.90
2022-08-25T00:26:27.809Z,12.80
2022-08-25T00:28:57.484Z,12.80
2022-08-25T00:31:38.253Z,12.80
2022-08-25T00:34:10.627Z,12.80
2022-08-25T00:36:38.928Z,12.80
2022-08-25T00:39:08.494Z,12.80
2022-08-25T00:41:36.969Z,12.70
2022-08-25T00:44:08.159Z,12.60
2022-08-25T00:46:45.106Z,12.60
2022-08-25T00:49:24.582Z,12.50
2022-08-25T00:51:59.482Z,12.40
2022-08-25T00:54:35.135Z,12.40
2022-08-25T00:57:05.019Z,12.40
2022-08-25T00:59:32.479Z,12.40
2022-08-25T01:02:00.390Z,12.50
2022-08-25T01:04:27.789Z,12.70
2022-08-25T01:06:56.770Z,12.90
2022-08-25T01:09:23.983Z,13.00
2022-08-25T01:11:51.122Z,13.20
2022-08-25T01:14:20.356Z,13.20
2022-08-25T01:16:47.808Z,13.20
2022-08-25T01:19:22.063Z,13.20
2022-08-25T01:21:51.397Z,13.20
2022-08-25T01:24:56.059Z,13.20
2022-08-25T01:27:23.146Z,13.10
2022-08-25T01:29:50.225Z,13.10
2022-08-25T01:32:17.335Z,13.00
2022-08-25T01:34:46.119Z,13.00
2022-08-25T01:37:15.806Z,13.00
2022-08-25T01:39:44.100Z,13.00
2022-08-25T01:43:02.221Z,13.00
2022-08-25T01:45:30.007Z,13.00
2022-08-25T01:47:57.077Z,13.00
2022-08-25T01:50:24.521Z,12.90
2022-08-25T01:52:56.453Z,12.80
2022-08-25T01:55:23.630Z,12.70
2022-08-25T01:57:50.668Z,12.70
2022-08-25T02:00:19.759Z,12.70
2022-08-25T02:02:47.315Z,12.60
2022-08-25T02:05:23.382Z,12.60
2022-08-25T02:07:51.092Z,12.60
2022-08-25T02:10:18.332Z,12.50
2022-08-25T02:12:45.462Z,12.50
2022-08-25T02:15:12.672Z,12.40
2022-08-25T02:17:39.816Z,12.40
2022-08-25T02:20:09.653Z,12.30
2022-08-25T02:22:37.092Z,12.30
2022-08-25T02:25:05.849Z,12.20
2022-08-25T02:27:32.948Z,12.20
2022-08-25T02:30:00.019Z,12.20
2022-08-25T02:32:27.910Z,12.20
2022-08-25T02:34:55.017Z,12.20
2022-08-25T02:37:22.135Z,12.10
2022-08-25T02:39:49.305Z,12.20
2022-08-25T02:42:16.501Z,12.20
2022-08-25T02:44:43.533Z,12.20
2022-08-25T02:47:10.617Z,12.20
2022-08-25T02:49:37.654Z,12.20
2022-08-25T02:52:05.431Z,12.20
2022-08-25T02:54:32.509Z,12.20
2022-08-25T02:57:00.049Z,12.20
2022-08-25T02:59:27.456Z,12.10
2022-08-25T03:01:54.705Z,12.10
2022-08-25T03:04:22.159Z,12.10
2022-08-25T03:06:49.306Z,12.10
2022-08-25T03:09:18.111Z,12.00
2022-08-25T03:11:46.085Z,12.00
2022-08-25T03:14:13.523Z,11.90
2022-08-25T03:16:42.795Z,11.90
2022-08-25T03:19:13.914Z,11.90
2022-08-25T03:21:40.974Z,11.90
2022-08-25T03:24:08.271Z,11.90
2022-08-25T03:26:53.853Z,11.80
2022-08-25T03:29:23.826Z,11.80
2022-08-25T03:31:52.306Z,11.80
2022-08-25T03:34:21.373Z,11.70
2022-08-25T03:36:51.313Z,11.70
2022-08-25T03:39:20.120Z,11.70
2022-08-25T03:41:47.662Z,11.70
2022-08-25T03:44:15.905Z,11.70
2022-08-25T03:46:46.861Z,11.70
2022-08-25T03:49:17.980Z,11.70
2022-08-25T03:51:48.835Z,11.60
2022-08-25T03:54:18.872Z,11.60
2022-08-25T03:56:46.714Z,11.60
2022-08-25T03:59:13.938Z,11.50
2022-08-25T04:01:43.303Z,11.50
2022-08-25T04:04:12.224Z,11.50
2022-08-25T04:06:41.014Z,11.40
2022-08-25T04:09:08.513Z,11.40
2022-08-25T04:11:36.489Z,11.40
2022-08-25T04:14:05.117Z,11.40
2022-08-25T04:16:34.519Z,11.30
2022-08-25T04:19:04.363Z,11.30
2022-08-25T04:21:31.909Z,11.30
2022-08-25T04:23:59.243Z,11.30
2022-08-25T04:26:36.796Z,11.30
2022-08-25T04:29:06.241Z,11.30
2022-08-25T04:31:34.362Z,11.30
2022-08-25T04:34:28.488Z,11.30
2022-08-25T04:36:52.990Z,11.40
2022-08-25T04:39:21.517Z,11.40
2022-08-25T04:41:50.003Z,11.40
2022-08-25T04:44:17.830Z,11.40
2022-08-25T04:46:44.992Z,11.30
2022-08-25T04:49:12.362Z,11.30
2022-08-25T04:51:42.259Z,11.30
2022-08-25T04:54:12.849Z,11.30
2022-08-25T04:56:41.587Z,11.20
2022-08-25T04:59:12.116Z,11.20
2022-08-25T05:01:40.780Z,11.20
2022-08-25T05:04:14.638Z,11.20
2022-08-25T05:06:55.297Z,11.20
2022-08-25T05:09:22.612Z,11.10
2022-08-25T05:11:49.671Z,11.10
2022-08-25T05:14:21.660Z,11.00
2022-08-25T05:16:53.012Z,11.00
2022-08-25T05:19:20.147Z,11.00
2022-08-25T05:21:47.322Z,11.00
2022-08-25T05:24:14.452Z,11.00
2022-08-25T05:26:42.068Z,11.10
2022-08-25T05:29:11.058Z,11.10
2022-08-25T05:31:42.260Z,11.10
2022-08-25T05:34:10.447Z,11.10
2022-08-25T05:36:38.634Z,11.10
2022-08-25T05:39:05.783Z,11.20
2022-08-25T05:41:33.616Z,11.20
2022-08-25T05:44:00.902Z,11.20
2022-08-25T05:46:28.135Z,11.20
2022-08-25T05:48:59.234Z,11.20
2022-08-25T05:51:27.347Z,11.20
2022-08-25T05:53:54.581Z,11.20
2022-08-25T05:56:21.795Z,11.20
2022-08-25T05:58:50.377Z,11.20
2022-08-25T06:01:50.168Z,11.20
2022-08-25T06:04:22.644Z,11.30
2022-08-25T06:06:53.506Z,11.30
2022-08-25T06:09:22.061Z,11.30
2022-08-25T06:11:54.053Z,11.30
2022-08-25T06:14:22.797Z,11.40
2022-08-25T06:16:51.673Z,11.40
2022-08-25T06:19:19.055Z,11.50
2022-08-25T06:21:46.134Z,11.50
2022-08-25T06:24:15.578Z,11.60
2022-08-25T06:26:44.346Z,11.60
2022-08-25T06:29:13.093Z,11.70
2022-08-25T06:31:40.420Z,11.80
2022-08-25T06:34:07.528Z,11.90
2022-08-25T06:36:35.289Z,11.90
2022-08-25T06:39:02.740Z,11.90
2022-08-25T06:41:36.642Z,11.90
2022-08-25T06:44:05.663Z,12.00
2022-08-25T06:46:36.225Z,12.00
2022-08-25T06:49:06.257Z,12.00
2022-08-25T06:51:35.783Z,12.00
2022-08-25T06:54:04.241Z,12.00
2022-08-25T06:56:31.345Z,12.10
2022-08-25T06:58:58.663Z,12.10
2022-08-25T07:01:27.228Z,12.10
2022-08-25T07:03:57.724Z,12.10
2022-08-25T07:06:27.271Z,12.10
2022-08-25T07:08:54.996Z,12.10
2022-08-25T07:11:22.214Z,12.00
2022-08-25T07:13:50.686Z,12.00
2022-08-25T07:16:20.593Z,12.10
2022-08-25T07:18:48.764Z,12.10
2022-08-25T07:21:16.869Z,12.10
2022-08-25T07:23:44.603Z,12.10
2022-08-25T07:29:32.019Z,12.10
2022-08-25T07:32:01.886Z,12.10
2022-08-25T07:34:52.293Z,12.10
2022-08-25T07:37:38.291Z,12.10
2022-08-25T07:40:11.637Z,12.10
2022-08-25T07:42:39.136Z,12.20
2022-08-25T07:45:07.430Z,12.30
2022-08-25T07:47:34.897Z,12.30
2022-08-25T07:50:02.113Z,12.40
2022-08-25T07:52:32.864Z,12.50
2022-08-25T07:55:00.920Z,12.60
2022-08-25T07:57:29.752Z,12.60
2022-08-25T07:59:58.755Z,12.70
2022-08-25T08:02:26.389Z,12.80
2022-08-25T08:04:54.369Z,12.90
2022-08-25T08:07:41.959Z,13.00
2022-08-25T08:13:01.947Z,13.40
2022-08-25T08:15:30.396Z,13.80
2022-08-25T08:18:00.854Z,14.10
2022-08-25T08:20:29.163Z,14.40
2022-08-25T08:22:56.414Z,14.50
2022-08-25T08:25:26.678Z,14.60
2022-08-25T08:27:56.117Z,14.70
2022-08-25T08:30:26.451Z,14.90
2022-08-25T08:33:11.811Z,14.90
2022-08-25T08:35:40.935Z,15.00
2022-08-25T08:38:16.075Z,15.00
2022-08-25T08:41:40.145Z,15.00
2022-08-25T08:44:28.421Z,15.30
2022-08-25T08:46:59.230Z,15.70
2022-08-25T08:49:47.962Z,15.80
2022-08-25T08:52:21.117Z,15.90
2022-08-25T08:55:02.221Z,16.00
2022-08-25T08:57:38.014Z,16.00
2022-08-25T09:00:07.195Z,15.90
2022-08-25T09:02:51.424Z,15.80
2022-08-25T09:05:22.212Z,15.70
2022-08-25T09:08:00.151Z,15.80
2022-08-25T09:11:03.627Z,16.00
2022-08-25T09:13:54.713Z,16.10
2022-08-25T09:16:55.158Z,16.10
2022-08-25T09:19:55.878Z,16.30
2022-08-25T09:22:40.065Z,16.50
2022-08-25T09:28:26.058Z,16.80
2022-08-25T09:31:12.340Z,17.10
2022-08-25T09:33:41.187Z,17.20
2022-08-25T09:36:08.859Z,17.30
2022-08-25T09:38:36.735Z,17.30
2022-08-25T09:41:04.231Z,17.40
2022-08-25T09:43:40.734Z,17.50
2022-08-25T09:46:15.842Z,17.50
2022-08-25T09:48:57.633Z,17.60
2022-08-25T09:51:42.142Z,17.60
2022-08-25T09:54:13.356Z,17.60
2022-08-25T09:56:55.661Z,17.70
2022-08-25T09:59:34.131Z,17.90
2022-08-25T10:02:27.170Z,17.90
2022-08-25T10:04:54.542Z,17.90
2022-08-25T10:07:32.497Z,17.90
2022-08-25T10:10:01.944Z,17.90
2022-08-25T10:12:37.943Z,17.90
2022-08-25T10:15:29.724Z,17.70
2022-08-25T10:18:20.075Z,17.60
2022-08-25T10:21:19.641Z,17.70
2022-08-25T10:23:51.731Z,17.50
2022-08-25T10:26:34.314Z,17.30
2022-08-25T10:29:05.213Z,17.40
2022-08-25T10:31:57.408Z,17.30
2022-08-25T10:34:51.738Z,17.40
2022-08-25T10:37:35.542Z,17.60
2022-08-25T10:40:26.990Z,17.80
2022-08-25T10:43:07.862Z,17.90
2022-08-25T10:45:48.058Z,18.10
2022-08-25T10:48:22.284Z,18.30
2022-08-25T10:51:18.025Z,18.20
2022-08-25T10:54:05.861Z,18.20
2022-08-25T10:56:41.860Z,18.50
2022-08-25T10:59:28.032Z,18.70
2022-08-25T11:02:24.877Z,18.50
2022-08-25T11:05:01.205Z,18.70
2022-08-25T11:07:40.706Z,18.90
2022-08-25T11:10:13.720Z,19.00
2022-08-25T11:12:52.793Z,19.20
2022-08-25T11:15:23.184Z,19.20
2022-08-25T11:18:14.559Z,19.20
2022-08-25T11:21:03.720Z,19.20
2022-08-25T11:23:43.477Z,19.30
2022-08-25T11:26:13.199Z,19.30
2022-08-25T11:29:00.718Z,19.30
2022-08-25T11:31:28.655Z,19.30
2022-08-25T11:33:56.969Z,19.40
2022-08-25T11:36:36.843Z,19.50
2022-08-25T11:39:16.808Z,19.50
2022-08-25T11:42:19.199Z,19.40
2022-08-25T11:45:13.085Z,19.50
2022-08-25T11:47:53.279Z,19.60
2022-08-25T11:50:55.091Z,19.70
2022-08-25T11:53:28.193Z,19.70
2022-08-25T11:56:07.022Z,19.80
2022-08-25T11:58:39.300Z,19.80
2022-08-25T12:01:31.353Z,19.80
2022-08-25T12:04:33.743Z,20.00
2022-08-25T12:07:07.179Z,20.10
2022-08-25T12:09:59.209Z,20.20
2022-08-25T12:12:55.413Z,20.30
2022-08-25T12:15:35.041Z,20.30
2022-08-25T12:18:15.860Z,20.40
2022-08-25T12:20:55.181Z,20.50
2022-08-25T12:23:33.369Z,20.50
2022-08-25T12:26:30.366Z,20.60
2022-08-25T12:29:28.236Z,20.50
2022-08-25T12:32:04.490Z,20.60
2022-08-25T12:35:07.093Z,20.60
2022-08-25T12:37:35.499Z,20.50
2022-08-25T12:40:06.504Z,20.30
2022-08-25T12:42:40.957Z,20.20
2022-08-25T12:45:24.762Z,20.10
2022-08-25T12:47:54.776Z,20.00
2022-08-25T12:50:47.882Z,20.00
2022-08-25T12:53:40.122Z,20.30
2022-08-25T12:56:23.601Z,20.20
2022-08-25T12:59:21.940Z,20.00
2022-08-25T13:02:07.919Z,20.10
2022-08-25T13:04:53.159Z,20.00
2022-08-25T13:07:46.588Z,19.90
2022-08-25T13:10:13.773Z,19.80
2022-08-25T13:12:55.422Z,20.10
2022-08-25T13:15:37.633Z,20.20
2022-08-25T13:18:22.870Z,20.40
2022-08-25T13:20:55.030Z,20.50
2022-08-25T13:23:34.110Z,20.40
2022-08-25T13:26:02.352Z,20.50
2022-08-25T13:28:33.504Z,20.70
2022-08-25T13:31:09.212Z,20.60
2022-08-25T13:33:37.756Z,20.50
2022-08-25T13:36:24.801Z,20.20
2022-08-25T13:38:52.150Z,19.90
2022-08-25T13:41:29.311Z,19.70
2022-08-25T13:44:00.849Z,19.20
2022-08-25T13:46:28.754Z,19.40
2022-08-25T13:49:08.647Z,19.30
2022-08-25T13:51:37.212Z,19.00
2022-08-25T13:54:23.499Z,19.10
2022-08-25T13:56:52.612Z,18.90
2022-08-25T13:59:33.271Z,19.10
2022-08-25T14:02:00.723Z,18.90
2022-08-25T14:04:51.806Z,18.80
2022-08-25T14:07:20.792Z,18.90
2022-08-25T14:09:49.677Z,19.10
2022-08-25T14:12:39.597Z,19.10
2022-08-25T14:15:06.937Z,19.10
2022-08-25T14:17:40.291Z,19.10
2022-08-25T14:20:17.235Z,19.10
2022-08-25T14:22:44.326Z,19.20
2022-08-25T14:25:12.142Z,19.20
2022-08-25T14:28:03.625Z,18.80
2022-08-25T14:30:36.658Z,18.70
2022-08-25T14:33:04.929Z,18.70
2022-08-25T14:35:38.241Z,18.60
2022-08-25T14:38:11.062Z,18.60
2022-08-25T14:40:39.885Z,18.70
2022-08-25T14:43:09.515Z,18.70
2022-08-25T14:45:45.530Z,18.60
2022-08-25T14:48:39.578Z,18.70
2022-08-25T14:51:07.152Z,18.70
2022-08-25T14:53:34.396Z,18.70
2022-08-25T14:56:08.357Z,18.70
2022-08-25T14:58:48.531Z,18.70
2022-08-25T15:01:29.546Z,18.60
2022-08-25T15:04:19.134Z,18.60
2022-08-25T15:06:49.184Z,18.40
2022-08-25T15:09:17.296Z,18.40
2022-08-25T15:11:51.004Z,18.30
2022-08-25T15:14:28.903Z,18.30
2022-08-25T15:17:01.872Z,18.10
2022-08-25T15:19:29.567Z,18.10
2022-08-25T15:21:57.843Z,17.90
2022-08-25T15:24:27.506Z,17.90
2022-08-25T15:27:05.727Z,17.90
2022-08-25T15:29:37.339Z,18.00
2022-08-25T15:32:07.223Z,18.10
2022-08-25T15:34:35.569Z,18.20
2022-08-25T15:37:12.020Z,18.20
2022-08-25T15:39:40.037Z,18.20
2022-08-25T15:42:07.383Z,18.10
2022-08-25T15:44:34.481Z,18.20
2022-08-25T15:47:03.415Z,18.30
2022-08-25T15:49:31.248Z,18.30
2022-08-25T15:51:59.180Z,18.40
2022-08-25T15:54:27.338Z,18.40
2022-08-25T15:56:55.850Z,18.30
2022-08-25T15:59:24.359Z,18.30
2022-08-25T16:01:53.970Z,18.20
2022-08-25T16:04:23.501Z,18.20
2022-08-25T16:06:52.081Z,18.40
2022-08-25T16:09:23.012Z,18.50
2022-08-25T16:11:56.948Z,18.70
2022-08-25T16:14:27.605Z,18.80
2022-08-25T16:16:58.021Z,18.90
2022-08-25T16:19:25.436Z,19.00
2022-08-25T16:21:52.583Z,19.00
2022-08-25T16:24:20.350Z,19.00
2022-08-25T16:26:48.867Z,19.00
2022-08-25T16:29:17.010Z,19.00
2022-08-25T16:31:45.470Z,19.00
2022-08-25T16:34:20.789Z,19.00
2022-08-25T16:36:47.897Z,19.00
2022-08-25T16:39:20.091Z,18.90
2022-08-25T16:41:49.554Z,18.90
2022-08-25T16:44:22.798Z,18.80
2022-08-25T16:46:54.566Z,18.80
2022-08-25T16:49:24.312Z,18.70
2022-08-25T16:51:57.349Z,18.70
2022-08-25T16:54:45.674Z,18.70
2022-08-25T16:57:13.562Z,18.80
2022-08-25T16:59:42.586Z,18.80
2022-08-25T17:02:11.278Z,18.80
2022-08-25T17:04:38.391Z,18.80
2022-08-25T17:07:05.556Z,18.80
2022-08-25T17:09:35.099Z,18.80
2022-08-25T17:12:04.473Z,18.80
2022-08-25T17:14:32.702Z,18.80
2022-08-25T17:17:00.098Z,18.80
2022-08-25T17:19:28.137Z,18.80
2022-08-25T17:21:55.369Z,18.80
2022-08-25T17:24:29.486Z,18.80
2022-08-25T17:26:59.571Z,18.80
2022-08-25T17:29:28.720Z,18.80
2022-08-25T17:31:55.793Z,18.80
2022-08-25T17:34:23.922Z,18.80
2022-08-25T17:36:51.737Z,18.80
2022-08-25T17:39:22.313Z,18.90
2022-08-25T17:41:50.815Z,18.80
2022-08-25T17:44:19.548Z,18.70
2022-08-25T17:46:47.991Z,18.70
2022-08-25T17:49:16.652Z,18.50
2022-08-25T17:51:45.302Z,18.50
2022-08-25T17:54:13.356Z,18.30
2022-08-25T17:56:40.941Z,18.20
2022-08-25T17:59:08.216Z,18.10
2022-08-25T18:01:40.224Z,18.00
2022-08-25T18:04:14.288Z,17.80
2022-08-25T18:06:46.451Z,17.80
2022-08-25T18:09:14.126Z,17.70
2022-08-25T18:11:42.280Z,17.60
2022-08-25T18:14:11.579Z,17.60
2022-08-25T18:16:39.044Z,17.60
2022-08-25T18:19:09.628Z,17.50
2022-08-25T18:21:37.709Z,17.50
2022-08-25T18:24:05.895Z,17.40
2022-08-25T18:26:34.616Z,17.40
2022-08-25T18:29:01.723Z,17.30
2022-08-25T18:31:29.136Z,17.20
2022-08-25T18:33:56.331Z,17.20
2022-08-25T18:36:23.920Z,17.20
2022-08-25T18:39:11.429Z,17.20
2022-08-25T18:41:42.739Z,17.20
2022-08-25T18:44:12.679Z,17.10
2022-08-25T18:46:43.128Z,17.10
2022-08-25T18:49:15.611Z,17.10
2022-08-25T18:51:45.069Z,17.00
2022-08-25T18:54:22.784Z,17.00
2022-08-25T18:56:51.682Z,17.00
2022-08-25T18:59:19.431Z,16.90
2022-08-25T19:01:46.898Z,16.90
2022-08-25T19:04:15.178Z,16.90
2022-08-25T19:06:43.963Z,16.80
2022-08-25T19:09:11.883Z,16.80
2022-08-25T19:11:39.240Z,16.80
2022-08-25T19:14:12.277Z,16.80
2022-08-25T19:16:43.615Z,16.70
2022-08-25T19:19:13.436Z,16.60
2022-08-25T19:21:41.897Z,16.50
2022-08-25T19:24:11.758Z,16.50
2022-08-25T19:26:40.139Z,16.40
2022-08-25T19:29:13.070Z,16.30
2022-08-25T19:31:42.659Z,16.30
2022-08-25T19:34:13.067Z,16.20
2022-08-25T19:36:41.654Z,16.10
2022-08-25T19:39:10.520Z,16.00
2022-08-25T19:41:38.153Z,15.90
2022-08-25T19:44:05.769Z,15.80
2022-08-25T19:46:37.614Z,15.70
2022-08-25T19:49:09.358Z,15.60
2022-08-25T19:51:44.169Z,15.50
2022-08-25T19:54:14.661Z,15.30
2022-08-25T19:56:54.464Z,15.20
2022-08-25T19:59:36.607Z,15.10
2022-08-25T20:02:12.848Z,15.10
2022-08-25T20:04:49.580Z,15.00
2022-08-25T20:07:29.885Z,14.90
2022-08-25T20:09:58.617Z,14.80
2022-08-25T20:12:26.131Z,14.70
2022-08-25T20:14:54.805Z,14.70
2022-08-25T20:17:23.442Z,14.60
2022-08-25T20:19:55.759Z,14.50
2022-08-25T20:22:26.391Z,14.40
2022-08-25T20:24:57.846Z,14.30
2022-08-25T20:27:31.939Z,14.30
2022-08-25T20:29:59.911Z,14.20
2022-08-25T20:32:32.030Z,14.10
2022-08-25T20:34:59.458Z,14.10
2022-08-25T20:37:26.683Z,14.00
2022-08-25T20:39:53.731Z,14.00
2022-08-25T20:42:20.957Z,14.00
2022-08-25T20:44:48.044Z,13.90
2022-08-25T20:47:15.439Z,13.90
2022-08-25T20:49:45.219Z,13.80
2022-08-25T20:52:14.144Z,13.80
2022-08-25T20:54:46.923Z,13.80
2022-08-25T20:57:25.795Z,13.80
2022-08-25T20:59:54.562Z,13.80
2022-08-25T21:02:22.399Z,13.70
2022-08-25T21:04:50.438Z,13.70
2022-08-25T21:07:18.702Z,13.70
2022-08-25T21:09:46.424Z,13.70
2022-08-25T21:12:13.656Z,13.70
2022-08-25T21:14:42.119Z,13.70
2022-08-25T21:17:12.756Z,13.70
2022-08-25T21:19:40.493Z,13.70
2022-08-25T21:22:10.643Z,13.60
2022-08-25T21:24:38.618Z,13.60
2022-08-25T21:27:06.246Z,13.60
2022-08-25T21:29:33.419Z,13.60
2022-08-25T21:32:00.828Z,13.60
2022-08-25T21:34:28.907Z,13.50
2022-08-25T21:36:58.177Z,13.50
2022-08-25T21:39:28.682Z,13.50
2022-08-25T21:41:58.600Z,13.40
2022-08-25T21:44:27.592Z,13.40
2022-08-25T21:46:55.000Z,13.40
2022-08-25T21:49:23.517Z,13.30
2022-08-25T21:52:00.297Z,13.30
2022-08-25T21:54:28.577Z,13.30
2022-08-25T21:57:05.451Z,13.30
2022-08-25T21:59:36.276Z,13.40
2022-08-25T22:02:07.562Z,13.40
2022-08-25T22:04:35.418Z,13.50
2022-08-25T22:07:02.668Z,13.50
2022-08-25T22:09:30.302Z,13.50
2022-08-25T22:11:58.675Z,13.60
2022-08-25T22:14:27.119Z,13.60
2022-08-25T22:16:55.307Z,13.60
2022-08-25T22:19:23.657Z,13.70
2022-08-25T22:21:53.148Z,13.70
2022-08-25T22:24:21.592Z,13.70
2022-08-25T22:26:49.403Z,13.80
2022-08-25T22:29:25.447Z,13.80
2022-08-25T22:31:59.324Z,13.80
2022-08-25T22:34:30.329Z,13.80
2022-08-25T22:37:01.060Z,13.80
2022-08-25T22:39:29.154Z,13.90
2022-08-25T22:41:56.463Z,13.90
2022-08-25T22:44:25.596Z,13.80
2022-08-25T22:46:53.495Z,13.80
2022-08-25T22:49:21.966Z,13.80
2022-08-25T22:51:49.236Z,13.70
2022-08-25T22:54:16.357Z,13.70
2022-08-25T22:56:43.685Z,13.60
2022-08-25T22:59:13.609Z,13.60
2022-08-25T23:01:43.126Z,13.60
2022-08-25T23:04:10.702Z,13.50
2022-08-25T23:06:38.218Z,13.50
2022-08-25T23:09:07.168Z,13.40
2022-08-25T23:11:38.472Z,13.40
2022-08-25T23:14:08.399Z,13.40
2022-08-25T23:16:36.258Z,13.40
2022-08-25T23:19:03.465Z,13.40
2022-08-25T23:21:50.957Z,13.30
2022-08-25T23:24:26.835Z,13.30
2022-08-25T23:26:59.207Z,13.40
2022-08-25T23:29:27.949Z,13.40
2022-08-25T23:31:55.901Z,13.50
2022-08-25T23:34:23.616Z,13.50
2022-08-25T23:36:50.910Z,13.50
2022-08-25T23:39:18.227Z,13.50
2022-08-25T23:41:45.372Z,13.60
2022-08-25T23:44:17.583Z,13.60
2022-08-25T23:46:47.669Z,13.60
2022-08-25T23:49:18.625Z,13.60
2022-08-25T23:51:48.644Z,13.60
2022-08-25T23:54:17.753Z,13.60
2022-08-25T23:56:52.271Z,13.60
2022-08-25T23:59:24.164Z,13.60
